METAR weather report URUGUAY

METAR es el estándar internacional del formato del código utilizado para emitir informes de las observaciones meteorológicas en los aeródromos.

Consta de una sigla traducida del francés (MÉTéorologique Aviation Régulière) como Informe meteorológico aeronáutico de rutinaria (en inglés: METeorological Aerodrome Report).

Los reportes METAR usualmente vienen de los aeropuertos y típicamente se emiten cada media o una hora, sin embargo, si las condiciones cambian significativamente pueden actualizarse con reportes llamados SPECI.

El código SPECI es el nombre en código dado al METAR emitido en una rutina no programada especial, ocasionada por cambios en las condiciones meteorológicas.

La sigla SPECI se traduce como Selección Especial del Reporte Meteorológico para la Aviación.

METAR es usado por los meteorólogos para ayudarse en los pronósticos del tiempo, y fundamentalmente por los pilotos de las aeronaves para conocer la meteorología de los aeropuertos de destino y actuar en consecuencia.

El formato que ha sido introducido en 1968 se consigue para determinado aeródromo por su código ICAO/OACI y contempla entre otros datos: viento, visibilidad, nubosidad y temperatura.
 


METAR is a format for reporting weather information.

A METAR weather report is predominantly used by pilots in fulfillment of a part of a pre-flight weather briefing, and by meteorologists, who use aggregated METAR information to assist in weather forecasting.

Raw METAR is the most popular format in the world for the transmission of weather data.

It is highly standardized through International Civil Aviation Organization (ICAO), which allows it to be understood throughout most of the world.

METAR reports typically come from airports or permanent weather observation stations.

Reports are typically generated once an hour; if conditions change significantly, however, they can be updated in special reports called SPECIs.

Some reports are encoded by automated airport weather stations located at airports, military bases, and other sites.

Some locations still use augmented observations, which are recorded by digital sensors, encoded via software, and then reviewed by certified weather observers or forecasters prior to being transmitted.

Observations may also be taken by trained observers or forecasters who manually observe and encode their observations prior to transmission.

The METAR format was introduced 1 January 1968 internationally and has been modified a number of times since.

A typical METAR report contains data for the temperature, dew point, wind speed and direction, precipitation, cloud cover and heights, visibility, and barometric pressure.

A METAR report may also contain information on precipitation amounts, lightning, and other information that would be of interest to pilots or meteorologists.


Last METAR data courtesy of NOAA and University of Wyoming

Station NameNueva Hesperides Airport - Salto 
ICAOSUSO 
Location31-22S 057-57W 
Elevation34m 
Time08/12/2019 13:00:00 UTC
Temperature28.0°C 
Wind ChillN/A 
Dew Point14.0°C 
RH42% 
WindNE (40 degrees) at 19 km/h 
Pressure1011.9 mb 
Visibility> 10.0km 
Heat Index27.8°C 
Sky Condition  
Weather  
Remarks  
METARSUSO 081300Z 04010KT CAVOK 28/14 Q1012  

Station NameCarrasco Airport - Canelones 
ICAOSUMU 
Location34-49S 056-00W 
Elevation32m 
Time08/12/2019 13:00:00 UTC
Temperature26.0°C 
Wind ChillN/A 
Dew Point10.0°C 
RH37% 
WindNNW (340 degrees) at 19 km/h 
Pressure1010.8 mb 
Visibility> 10.0km 
Heat Index26.1°C 
Sky Condition  
Weather  
Remarks  
METARSUMU 081300Z 34010KT CAVOK 26/10 Q1011 NOSIG 

Station NameLaguna de los Patos Airport - Colonia 
ICAOSUCA 
Location34-27S 057-49W 
Elevation23m 
Time08/12/2019 13:00:00 UTC
Temperature28.0°C 
Wind ChillN/A 
Dew Point11.0°C 
RH35% 
WindN (360 degrees) at 19 km/h 
Pressure1010.8 mb 
Visibility> 10.0km 
Heat Index27.3°C 
Sky ConditionFew clouds at 790m
Broken clouds at 6100m
 
Weather  
Remarks  
METARSUCA 081300Z 36010KT 9999 FEW026 BKN200 28/11 Q1011  

Station NameLaguna del Sauce Airport - Maldonado 
ICAOSULS 
Location34-52S 055-06W 
Elevation30m 
Time08/12/2019 13:00:00 UTC
Temperature27.0°C 
Wind ChillN/A 
Dew Point10.0°C 
RH34% 
WindW (270 degrees) at 13 km/h 
Pressure1010.8 mb 
Visibility> 10.0km 
Heat Index26.6°C 
Sky Condition  
Weather  
Remarks  
METARSULS 081300Z 27007KT CAVOK 27/10 Q1011  

Last update: 08/12/2019 13:36:37 UTC

The page will automatically refresh every 20 minutes

MENU

CX2SA 1978 2019
SALTO URUGUAY